createdAt,value
2018-06-03T00:02:23.137Z,21.40
2018-06-03T00:04:52.824Z,21.30
2018-06-03T00:07:22.703Z,21.20
2018-06-03T00:09:50.442Z,21.20
2018-06-03T00:12:18.239Z,21.10
2018-06-03T00:14:46.292Z,21.10
2018-06-03T00:17:14.308Z,21.00
2018-06-03T00:19:41.944Z,21.00
2018-06-03T00:22:29.388Z,21.00
2018-06-03T00:24:58.678Z,21.00
2018-06-03T00:27:27.292Z,20.90
2018-06-03T00:29:57.697Z,20.90
2018-06-03T00:32:26.910Z,20.90
2018-06-03T00:34:55.611Z,20.90
2018-06-03T00:37:23.882Z,20.80
2018-06-03T00:39:52.166Z,20.80
2018-06-03T00:42:22.427Z,20.70
2018-06-03T00:44:50.927Z,20.70
2018-06-03T00:47:19.758Z,20.60
2018-06-03T00:49:48.318Z,20.60
2018-06-03T00:52:17.309Z,20.50
2018-06-03T00:54:45.648Z,20.50
2018-06-03T00:57:13.949Z,20.50
2018-06-03T00:59:43.306Z,20.50
2018-06-03T01:02:12.494Z,20.50
2018-06-03T01:04:41.249Z,20.50
2018-06-03T01:07:10.371Z,20.60
2018-06-03T01:09:40.126Z,20.50
2018-06-03T01:12:08.275Z,20.50
2018-06-03T01:14:36.899Z,20.60
2018-06-03T01:17:05.140Z,20.60
2018-06-03T01:19:33.016Z,20.60
2018-06-03T01:22:03.334Z,20.70
2018-06-03T01:24:32.081Z,20.70
2018-06-03T01:27:00.699Z,20.60
2018-06-03T01:29:30.512Z,20.70
2018-06-03T01:31:59.051Z,20.70
2018-06-03T01:34:28.413Z,20.80
2018-06-03T01:36:56.796Z,20.70
2018-06-03T01:39:24.468Z,20.80
2018-06-03T01:41:53.310Z,20.80
2018-06-03T01:44:21.611Z,20.80
2018-06-03T01:46:50.484Z,20.90
2018-06-03T01:49:21.059Z,20.90
2018-06-03T01:51:48.755Z,21.00
2018-06-03T01:54:16.703Z,21.00
2018-06-03T01:56:44.418Z,21.00
2018-06-03T01:59:14.575Z,21.00
2018-06-03T02:01:44.037Z,21.00
2018-06-03T02:04:13.534Z,21.00
2018-06-03T02:06:42.498Z,21.00
2018-06-03T02:09:10.682Z,21.00
2018-06-03T02:11:38.433Z,21.00
2018-06-03T02:14:06.252Z,21.00
2018-06-03T02:16:34.820Z,20.90
2018-06-03T02:19:03.320Z,20.80
2018-06-03T02:21:32.709Z,20.80
2018-06-03T02:24:01.529Z,20.80
2018-06-03T02:26:30.064Z,20.70
2018-06-03T02:28:58.769Z,20.70
2018-06-03T02:31:27.356Z,20.60
2018-06-03T02:33:58.127Z,20.60
2018-06-03T02:36:27.888Z,20.50
2018-06-03T02:38:56.429Z,20.40
2018-06-03T02:41:24.283Z,20.40
2018-06-03T02:43:52.747Z,20.30
2018-06-03T02:46:21.262Z,20.30
2018-06-03T02:48:48.951Z,20.20
2018-06-03T02:51:17.714Z,20.30
2018-06-03T02:53:45.387Z,20.20
2018-06-03T02:56:13.159Z,20.20
2018-06-03T02:58:41.725Z,20.20
2018-06-03T03:01:10.186Z,20.10
2018-06-03T03:03:37.940Z,20.10
2018-06-03T03:06:06.067Z,20.10
2018-06-03T03:08:33.935Z,20.10
2018-06-03T03:11:03.414Z,20.10
2018-06-03T03:13:32.863Z,20.10
2018-06-03T03:16:00.602Z,20.00
2018-06-03T03:18:29.007Z,20.00
2018-06-03T03:20:56.678Z,20.00
2018-06-03T03:23:24.360Z,20.00
2018-06-03T03:25:52.868Z,20.00
2018-06-03T03:28:21.482Z,19.90
2018-06-03T03:30:49.200Z,19.90
2018-06-03T03:33:16.877Z,20.00
2018-06-03T03:35:45.386Z,20.00
2018-06-03T03:38:13.108Z,20.00
2018-06-03T03:40:41.347Z,20.00
2018-06-03T03:43:09.103Z,20.10
2018-06-03T03:45:36.807Z,20.10
2018-06-03T03:48:04.591Z,20.20
2018-06-03T03:50:32.658Z,20.20
2018-06-03T03:53:02.378Z,20.30
2018-06-03T03:55:30.120Z,20.30
2018-06-03T03:57:58.789Z,20.30
2018-06-03T04:00:26.546Z,20.40
2018-06-03T04:02:54.285Z,20.30
2018-06-03T04:05:21.966Z,20.40
2018-06-03T04:07:49.659Z,20.40
2018-06-03T04:10:17.365Z,20.40
2018-06-03T04:12:46.998Z,20.40
2018-06-03T04:15:14.747Z,20.40
2018-06-03T04:17:43.292Z,20.40
2018-06-03T04:20:11.032Z,20.40
2018-06-03T04:22:38.795Z,20.40
2018-06-03T04:25:06.435Z,20.40
2018-06-03T04:27:34.147Z,20.50
2018-06-03T04:30:01.932Z,20.50
2018-06-03T04:32:29.601Z,20.50
2018-06-03T04:34:57.332Z,20.60
2018-06-03T04:37:25.061Z,20.60
2018-06-03T04:39:52.805Z,20.60
2018-06-03T04:42:21.073Z,20.70
2018-06-03T04:44:48.854Z,20.70
2018-06-03T04:47:16.529Z,20.70
2018-06-03T04:49:44.758Z,20.70
2018-06-03T04:52:13.028Z,20.70
2018-06-03T04:54:40.849Z,20.80
2018-06-03T04:57:08.718Z,20.80
2018-06-03T04:59:37.226Z,20.90
2018-06-03T05:02:05.651Z,20.90
2018-06-03T05:04:34.909Z,21.00
2018-06-03T05:07:02.686Z,21.00
2018-06-03T05:09:33.213Z,21.10
2018-06-03T05:12:00.931Z,21.10
2018-06-03T05:14:29.466Z,21.20
2018-06-03T05:16:57.263Z,21.20
2018-06-03T05:19:25.126Z,21.30
2018-06-03T05:21:53.577Z,21.50
2018-06-03T05:24:22.292Z,21.40
2018-06-03T05:26:52.719Z,21.50
2018-06-03T05:29:20.514Z,21.50
2018-06-03T05:31:48.161Z,21.50
2018-06-03T05:34:17.474Z,21.60
2018-06-03T05:36:47.943Z,21.60
2018-06-03T05:39:15.717Z,21.70
2018-06-03T05:41:43.472Z,21.80
2018-06-03T05:44:11.143Z,22.00
2018-06-03T05:46:38.863Z,22.00
2018-06-03T05:49:06.522Z,22.00
2018-06-03T05:51:34.252Z,22.00
2018-06-03T05:54:02.557Z,22.00
2018-06-03T05:56:31.119Z,22.00
2018-06-03T05:58:58.779Z,21.90
2018-06-03T06:01:28.183Z,22.00
2018-06-03T06:03:57.482Z,22.00
2018-06-03T06:06:25.590Z,22.00
2018-06-03T06:08:53.756Z,22.10
2018-06-03T06:11:21.649Z,22.10
2018-06-03T06:13:50.653Z,22.20
2018-06-03T06:16:21.400Z,22.30
2018-06-03T06:18:49.066Z,22.40
2018-06-03T06:21:19.970Z,22.50
2018-06-03T06:23:47.686Z,22.50
2018-06-03T06:26:15.814Z,22.60
2018-06-03T06:28:44.394Z,22.70
2018-06-03T06:31:12.147Z,22.70
2018-06-03T06:33:39.795Z,22.80
2018-06-03T06:36:09.843Z,23.00
2018-06-03T06:38:39.379Z,23.10
2018-06-03T06:41:07.116Z,23.10
2018-06-03T06:43:38.879Z,23.30
2018-06-03T06:46:11.042Z,23.50
2018-06-03T06:48:45.134Z,23.60
2018-06-03T06:51:17.281Z,23.80
2018-06-03T06:53:54.260Z,23.90
2018-06-03T06:56:29.234Z,24.00
2018-06-03T06:59:01.283Z,24.10
2018-06-03T07:01:35.141Z,24.30
2018-06-03T07:04:06.846Z,24.40
2018-06-03T07:06:42.106Z,24.50
2018-06-03T07:09:13.676Z,24.80
2018-06-03T07:11:44.798Z,25.10
2018-06-03T07:14:15.602Z,25.40
2018-06-03T07:16:46.018Z,25.80
2018-06-03T07:19:30.512Z,26.10
2018-06-03T07:22:02.150Z,26.40
2018-06-03T07:24:31.201Z,26.60
2018-06-03T07:27:06.706Z,26.80
2018-06-03T07:29:38.331Z,27.10
2018-06-03T07:34:47.736Z,27.40
2018-06-03T07:37:27.341Z,27.50
2018-06-03T07:42:36.347Z,27.90
2018-06-03T07:45:11.207Z,27.80
2018-06-03T07:47:49.290Z,27.90
2018-06-03T07:50:18.467Z,27.70
2018-06-03T07:52:51.976Z,27.30
2018-06-03T07:55:37.090Z,26.90
2018-06-03T07:58:09.724Z,26.90
2018-06-03T08:00:40.615Z,26.60
2018-06-03T08:03:10.438Z,26.40
2018-06-03T08:05:40.661Z,26.20
2018-06-03T08:08:10.270Z,26.00
2018-06-03T08:10:38.081Z,25.80
2018-06-03T08:13:12.676Z,25.80
2018-06-03T08:15:43.843Z,25.80
2018-06-03T08:18:16.301Z,25.70
2018-06-03T08:20:44.302Z,25.60
2018-06-03T08:23:14.123Z,25.60
2018-06-03T08:25:44.108Z,25.60
2018-06-03T08:28:14.528Z,25.50
2018-06-03T08:30:42.258Z,25.60
2018-06-03T08:33:11.100Z,25.60
2018-06-03T08:35:41.636Z,25.70
2018-06-03T08:38:11.371Z,25.60
2018-06-03T08:40:44.487Z,25.60
2018-06-03T08:43:18.024Z,25.60
2018-06-03T08:45:59.752Z,25.50
2018-06-03T08:48:32.710Z,25.70
2018-06-03T08:51:03.776Z,25.90
2018-06-03T08:53:33.315Z,26.10
2018-06-03T08:56:04.479Z,26.10
2018-06-03T08:58:35.003Z,26.20
2018-06-03T09:01:07.222Z,26.50
2018-06-03T09:03:54.891Z,26.40
2018-06-03T09:06:27.255Z,26.50
2018-06-03T09:08:59.044Z,26.50
2018-06-03T09:11:32.236Z,26.30
2018-06-03T09:14:06.167Z,26.30
2018-06-03T09:16:41.586Z,26.30
2018-06-03T09:19:09.999Z,26.50
2018-06-03T09:21:46.123Z,26.80
2018-06-03T09:24:23.026Z,27.10
2018-06-03T09:26:53.210Z,27.10
2018-06-03T09:29:25.564Z,27.50
2018-06-03T09:31:59.365Z,27.70
2018-06-03T09:34:29.921Z,28.00
2018-06-03T09:36:59.888Z,28.30
2018-06-03T09:39:45.809Z,28.40
2018-06-03T09:42:18.703Z,28.50
2018-06-03T09:44:48.556Z,28.40
2018-06-03T09:47:21.992Z,28.10
2018-06-03T09:52:44.567Z,28.00
2018-06-03T09:55:19.132Z,28.00
2018-06-03T09:57:56.924Z,28.00
2018-06-03T10:00:30.073Z,28.10
2018-06-03T10:03:02.542Z,28.30
2018-06-03T10:11:35.105Z,29.50
2018-06-03T10:14:12.600Z,29.80
2018-06-03T10:16:54.409Z,30.40
2018-06-03T10:22:14.616Z,31.20
2018-06-03T10:24:53.344Z,31.30
2018-06-03T10:27:41.886Z,31.70
2018-06-03T10:30:39.244Z,32.20
2018-06-03T10:33:24.227Z,32.70
2018-06-03T10:36:08.157Z,33.20
2018-06-03T10:38:44.714Z,33.30
2018-06-03T10:41:25.858Z,34.10
2018-06-03T10:44:14.255Z,34.10
2018-06-03T10:46:47.352Z,34.50
2018-06-03T10:55:54.629Z,34.90
2018-06-03T10:58:28.804Z,34.30
2018-06-03T11:01:15.627Z,34.00
2018-06-03T11:03:47.753Z,34.30
2018-06-03T11:06:40.474Z,34.40
2018-06-03T11:09:11.071Z,34.00
2018-06-03T11:11:44.898Z,33.50
2018-06-03T11:14:19.129Z,33.30
2018-06-03T11:16:48.789Z,33.30
2018-06-03T11:19:25.046Z,33.70
2018-06-03T11:22:09.735Z,33.70
2018-06-03T11:24:43.306Z,33.70
2018-06-03T11:27:25.203Z,33.70
2018-06-03T11:35:19.880Z,34.00
2018-06-03T11:37:55.667Z,34.70
2018-06-03T11:40:49.867Z,35.20
2018-06-03T11:43:33.541Z,35.80
2018-06-03T11:46:08.481Z,36.10
2018-06-03T11:51:30.336Z,36.30
2018-06-03T11:54:10.112Z,36.30
2018-06-03T11:56:53.097Z,36.30
2018-06-03T11:59:35.835Z,36.60
2018-06-03T12:02:09.092Z,36.30
2018-06-03T12:04:42.736Z,36.30
2018-06-03T12:07:25.570Z,35.70
2018-06-03T12:09:57.797Z,35.70
2018-06-03T12:12:32.952Z,35.20
2018-06-03T12:15:09.056Z,34.60
2018-06-03T12:17:43.208Z,34.50
2018-06-03T12:20:22.285Z,34.80
2018-06-03T12:23:14.937Z,34.90
2018-06-03T12:25:52.586Z,34.70
2018-06-03T12:43:48.062Z,34.30
2018-06-03T12:46:19.186Z,33.40
2018-06-03T12:48:55.664Z,33.20
2018-06-03T12:54:28.675Z,33.50
2018-06-03T12:57:00.657Z,33.60
2018-06-03T12:59:33.113Z,33.60
2018-06-03T13:02:10.554Z,33.40
2018-06-03T13:04:43.350Z,33.00
2018-06-03T13:13:40.409Z,32.00
2018-06-03T13:16:29.156Z,31.70
2018-06-03T13:22:23.128Z,31.00
2018-06-03T13:28:13.370Z,30.20
2018-06-03T13:31:10.528Z,29.90
2018-06-03T13:33:48.528Z,29.80
2018-06-03T13:43:43.409Z,29.70
2018-06-03T13:46:23.116Z,29.90
2018-06-03T13:49:04.318Z,29.70
2018-06-03T13:54:28.844Z,29.60
2018-06-03T14:03:52.172Z,30.00
2018-06-03T14:06:46.122Z,30.30
2018-06-03T14:12:05.931Z,30.60
2018-06-03T14:20:05.370Z,30.90
2018-06-03T14:22:35.564Z,31.00
2018-06-03T14:25:09.911Z,31.00
2018-06-03T14:27:54.428Z,31.00
2018-06-03T14:33:37.736Z,30.90
2018-06-03T14:36:14.462Z,30.90
2018-06-03T14:38:59.285Z,30.80
2018-06-03T14:41:27.638Z,30.80
2018-06-03T14:47:25.776Z,30.60
2018-06-03T14:52:34.596Z,30.30
2018-06-03T14:55:09.541Z,30.20
2018-06-03T15:00:13.187Z,30.00
2018-06-03T15:02:48.503Z,29.80
2018-06-03T15:05:19.865Z,29.60
2018-06-03T15:07:49.311Z,29.50
2018-06-03T15:10:18.570Z,29.50
2018-06-03T15:12:49.790Z,29.60
2018-06-03T15:15:27.623Z,29.50
2018-06-03T15:17:56.595Z,29.50
2018-06-03T15:20:25.312Z,29.40
2018-06-03T15:22:54.616Z,29.50
2018-06-03T15:25:26.215Z,29.60
2018-06-03T15:27:59.353Z,29.50
2018-06-03T15:30:36.011Z,29.50
2018-06-03T15:33:08.805Z,29.50
2018-06-03T15:35:38.953Z,29.50
2018-06-03T15:38:08.643Z,29.50
2018-06-03T15:40:37.784Z,29.50
2018-06-03T15:43:05.512Z,29.50
2018-06-03T15:45:37.679Z,29.50
2018-06-03T15:48:16.422Z,29.50
2018-06-03T15:50:50.630Z,29.40
2018-06-03T15:53:23.959Z,29.30
2018-06-03T15:55:57.451Z,29.30
2018-06-03T16:01:10.660Z,29.10
2018-06-03T16:03:40.225Z,29.00
2018-06-03T16:06:13.302Z,29.00
2018-06-03T16:08:41.760Z,29.00
2018-06-03T16:11:16.404Z,29.00
2018-06-03T16:13:44.969Z,28.90
2018-06-03T16:16:13.873Z,28.90
2018-06-03T16:18:46.092Z,28.80
2018-06-03T16:21:28.805Z,28.90
2018-06-03T16:23:58.051Z,28.80
2018-06-03T16:26:28.872Z,28.80
2018-06-03T16:29:02.065Z,28.80
2018-06-03T16:31:35.063Z,28.80
2018-06-03T16:34:06.439Z,28.80
2018-06-03T16:36:38.184Z,28.80
2018-06-03T16:39:07.218Z,28.80
2018-06-03T16:41:35.269Z,28.80
2018-06-03T16:44:04.164Z,28.80
2018-06-03T16:46:33.637Z,28.80
2018-06-03T16:49:05.077Z,28.70
2018-06-03T16:51:37.343Z,28.60
2018-06-03T16:54:07.005Z,28.50
2018-06-03T16:56:36.809Z,28.40
2018-06-03T16:59:04.616Z,28.30
2018-06-03T17:01:34.627Z,28.20
2018-06-03T17:04:03.379Z,28.20
2018-06-03T17:06:36.673Z,28.20
2018-06-03T17:09:10.339Z,28.10
2018-06-03T17:11:40.497Z,28.10
2018-06-03T17:14:09.884Z,28.00
2018-06-03T17:19:12.159Z,27.90
2018-06-03T17:21:42.044Z,27.80
2018-06-03T17:24:14.382Z,27.80
2018-06-03T17:26:42.953Z,27.70
2018-06-03T17:29:14.607Z,27.60
2018-06-03T17:31:47.587Z,27.50
2018-06-03T17:34:28.749Z,27.40
2018-06-03T17:36:59.432Z,27.40
2018-06-03T17:42:47.247Z,27.30
2018-06-03T17:45:16.624Z,27.20
2018-06-03T17:47:44.359Z,27.20
2018-06-03T17:50:12.072Z,27.10
2018-06-03T17:52:39.778Z,27.10
2018-06-03T17:55:08.252Z,27.00
2018-06-03T17:57:35.947Z,27.00
2018-06-03T18:00:03.719Z,26.90
2018-06-03T18:02:31.422Z,26.80
2018-06-03T18:04:59.112Z,26.80
2018-06-03T18:07:26.836Z,26.80
2018-06-03T18:09:57.664Z,26.70
2018-06-03T18:12:29.496Z,26.70
2018-06-03T18:14:57.292Z,26.60
2018-06-03T18:17:25.193Z,26.50
2018-06-03T18:19:54.991Z,26.50
2018-06-03T18:22:24.810Z,26.40
2018-06-03T18:24:54.399Z,26.40
2018-06-03T18:27:23.738Z,26.20
2018-06-03T18:29:52.710Z,26.20
2018-06-03T18:32:21.624Z,26.10
2018-06-03T18:34:50.787Z,26.00
2018-06-03T18:37:19.886Z,25.90
2018-06-03T18:39:49.037Z,25.80
2018-06-03T18:42:18.147Z,25.80
2018-06-03T18:44:46.867Z,25.70
2018-06-03T18:47:15.772Z,25.60
2018-06-03T18:49:44.780Z,25.50
2018-06-03T18:52:13.989Z,25.50
2018-06-03T18:54:43.020Z,25.50
2018-06-03T18:57:12.305Z,25.40
2018-06-03T19:02:52.173Z,25.30
2018-06-03T19:05:21.236Z,25.20
2018-06-03T19:07:50.776Z,25.10
2018-06-03T19:10:20.634Z,25.00
2018-06-03T19:12:48.363Z,25.00
2018-06-03T19:15:16.050Z,25.00
2018-06-03T19:17:43.769Z,24.90
2018-06-03T19:20:12.734Z,24.90
2018-06-03T19:22:40.467Z,24.90
2018-06-03T19:25:08.187Z,24.80
2018-06-03T19:27:35.845Z,24.80
2018-06-03T19:30:03.627Z,24.70
2018-06-03T19:32:31.352Z,24.70
2018-06-03T19:34:59.795Z,24.60
2018-06-03T19:37:27.479Z,24.60
2018-06-03T19:39:55.174Z,24.60
2018-06-03T19:42:23.566Z,24.50
2018-06-03T19:44:51.395Z,24.50
2018-06-03T19:47:19.232Z,24.40
2018-06-03T19:49:46.902Z,24.40
2018-06-03T19:52:14.565Z,24.30
2018-06-03T19:54:42.195Z,24.30
2018-06-03T19:57:09.839Z,24.30
2018-06-03T19:59:38.497Z,24.20
2018-06-03T20:02:07.025Z,24.20
2018-06-03T20:04:42.702Z,24.10
2018-06-03T20:07:13.618Z,24.10
2018-06-03T20:09:41.429Z,24.10
2018-06-03T20:12:13.477Z,24.00
2018-06-03T20:14:41.158Z,24.00
2018-06-03T20:20:39.598Z,23.80
2018-06-03T20:23:15.507Z,23.80
2018-06-03T20:25:44.651Z,23.70
2018-06-03T20:28:16.603Z,23.70
2018-06-03T20:34:10.786Z,23.60
2018-06-03T20:36:58.770Z,23.60
2018-06-03T20:39:49.970Z,23.50
2018-06-03T20:42:35.785Z,23.50
2018-06-03T20:45:07.919Z,23.40
2018-06-03T20:47:37.174Z,23.40
2018-06-03T20:50:06.417Z,23.30
2018-06-03T20:52:37.226Z,23.20
2018-06-03T20:55:07.131Z,23.10
2018-06-03T20:57:36.478Z,23.00
2018-06-03T21:00:05.649Z,22.90
2018-06-03T21:02:35.696Z,22.90
2018-06-03T21:05:04.966Z,22.90
2018-06-03T21:07:34.348Z,22.80
2018-06-03T21:10:03.492Z,22.70
2018-06-03T21:12:32.624Z,22.60
2018-06-03T21:15:01.652Z,22.60
2018-06-03T21:17:29.926Z,22.50
2018-06-03T21:19:59.211Z,22.50
2018-06-03T21:22:28.386Z,22.40
2018-06-03T21:24:57.491Z,22.40
2018-06-03T21:27:26.728Z,22.40
2018-06-03T21:29:56.074Z,22.30
2018-06-03T21:32:25.205Z,22.30
2018-06-03T21:34:54.248Z,22.30
2018-06-03T21:37:23.281Z,22.20
2018-06-03T21:39:52.241Z,22.20
2018-06-03T21:42:21.462Z,22.10
2018-06-03T21:44:50.711Z,22.10
2018-06-03T21:47:20.329Z,22.10
2018-06-03T21:49:49.502Z,22.10
2018-06-03T21:52:19.467Z,22.10
2018-06-03T21:54:48.591Z,22.00
2018-06-03T21:57:18.438Z,22.00
2018-06-03T21:59:47.449Z,22.00
2018-06-03T22:02:16.455Z,22.00
2018-06-03T22:04:45.572Z,22.00
2018-06-03T22:07:14.586Z,22.00
2018-06-03T22:09:43.755Z,22.00
2018-06-03T22:12:13.050Z,22.10
2018-06-03T22:14:42.194Z,22.10
2018-06-03T22:17:11.296Z,22.10
2018-06-03T22:19:41.236Z,22.10
2018-06-03T22:22:10.442Z,22.10
2018-06-03T22:24:38.277Z,22.10
2018-06-03T22:27:06.820Z,22.10
2018-06-03T22:29:34.595Z,22.00
2018-06-03T22:32:02.370Z,22.00
2018-06-03T22:34:30.834Z,21.90
2018-06-03T22:36:58.618Z,21.90
2018-06-03T22:39:26.408Z,21.80
2018-06-03T22:41:54.936Z,21.70
2018-06-03T22:44:22.696Z,21.70
2018-06-03T22:46:50.443Z,21.70
2018-06-03T22:49:18.194Z,21.70
2018-06-03T22:51:45.942Z,21.70
2018-06-03T22:54:13.698Z,21.70
2018-06-03T22:56:41.517Z,21.60
2018-06-03T22:59:09.295Z,21.60
2018-06-03T23:01:37.104Z,21.60
2018-06-03T23:04:05.747Z,21.60
2018-06-03T23:06:35.583Z,21.50
2018-06-03T23:09:03.378Z,21.50
2018-06-03T23:11:31.111Z,21.50
2018-06-03T23:13:58.839Z,21.50
2018-06-03T23:16:26.716Z,21.50
2018-06-03T23:18:54.434Z,21.40
2018-06-03T23:21:22.193Z,21.40
2018-06-03T23:23:50.693Z,21.30
2018-06-03T23:26:18.427Z,21.30
2018-06-03T23:28:46.938Z,21.20
2018-06-03T23:31:14.688Z,21.20
2018-06-03T23:33:43.179Z,21.10
2018-06-03T23:36:10.914Z,21.10
2018-06-03T23:38:38.668Z,21.10
2018-06-03T23:41:06.377Z,21.10
2018-06-03T23:43:34.152Z,21.10
2018-06-03T23:46:02.123Z,21.10
2018-06-03T23:48:29.900Z,21.10
2018-06-03T23:50:57.848Z,21.10
2018-06-03T23:53:25.634Z,21.00
2018-06-03T23:55:53.394Z,21.00
2018-06-03T23:58:21.239Z,21.00
